In Rescue
 
Open Full Screen Window  High Contrast Mode
Wind Gusting 15 knots
09
March 01, 2024 3:54 PM CST
Weather Information
Wind Direction
  190 °
Wind Speed
  09 kt (10 mph)
Wind Gust
  15 kt (17 mph)
Variable Wind
150°
230°
Altimeter
29.64 in
Visibility
10 SM
Temperature
11° C
52° F
Dewpoint
-03° C
27° F
Humidity
37%
Sky Condition
Clear
VFR

METAR KORB 012154Z AUTO 19009G15KT 150V230 10SM CLR 11/M03 A2964 RMK AO2

FAA Disclaimer: The data displayed is for advisory purposes only and is not to be used for flight planning or operations.